CSUN Campus Station - National Weather Service Data Page - PST Time




                Date      RH     Dew  Seasonal     Current   Max Air   Min Air    Wind    Wind    Wind    Gust     Bar    Rain
                Time       %   Point      Rain    Air Temp     Since     Since   Speed    Gust     Dir     Dir   Press   Total
                               Deg F    Inches       Deg F  Midnight  Midnight     MPH     MPH                      mb  Inches
------------------------------------------------------------------------------------------------------------------------------
    03/23/2017 00:00      77    42.8     20.58        50.0      65.9      49.7       0       3     266     255    1015    0.00
    03/23/2017 00:10      79    43.2     20.58        49.7      50.0      49.4       1       3     305     258    1015    0.00
    03/23/2017 00:20      77    43.0     20.58        49.8      50.1      49.4       1       4     245     256    1015    0.00
    03/23/2017 00:30      74    42.5     20.58        49.9      50.6      49.4       2       5     276     253    1015    0.00
    03/23/2017 00:40      74    42.4     20.58        50.3      50.6      49.4       0       2     200     248    1015    0.00
    03/23/2017 00:50      70    41.2     20.58        51.0      51.4      49.4       3       7     179     285    1015    0.00
    03/23/2017 01:00      60    39.9     20.58        51.6      52.0      49.4       2       6     244     251    1015    0.00
    03/23/2017 01:10      69    40.9     20.58        51.6      52.0      49.4       0       4     267     331    1015    0.00
    03/23/2017 01:20      74    41.5     20.58        50.6      52.0      49.4       2       7     249     248    1015    0.00
    03/23/2017 01:30      76    42.4     20.58        49.7      52.0      49.4       2       4     231     197    1015    0.00
    03/23/2017 01:40      75    42.1     20.58        49.7      52.0      49.3       3       7     234     247    1015    0.00
    03/23/2017 01:50      76    42.3     20.58        49.6      52.0      49.3       1       3     255     241    1015    0.00
    03/23/2017 02:00      71    41.7     20.58        49.5      52.0      49.3       3       5     272     252    1015    0.00
    03/23/2017 02:10      69    40.3     20.58        50.0      52.0      49.3       2       5     277     230    1015    0.00
    03/23/2017 02:20      68    40.0     20.58        49.8      52.0      49.3       2       4     291     273    1015    0.00
    03/23/2017 02:30      66    39.6     20.58        49.9      52.0      49.3       2       4     300     288    1015    0.00
    03/23/2017 02:40      54    37.4     20.58        51.2      52.6      49.3       5      17     319     350    1015    0.00
    03/23/2017 02:50      55    36.5     20.58        52.4      52.6      49.3       7      17     331     348    1015    0.00
    03/23/2017 03:00      57    36.8     20.58        52.0      52.6      49.3       4      15     315     342    1015    0.00
    03/23/2017 03:10      56    36.6     20.58        51.8      52.6      49.3       4      11     308     318    1015    0.00
    03/23/2017 03:20      56    36.5     20.58        51.8      52.6      49.3       4      11     303     338    1015    0.00
    03/23/2017 03:30      53    35.9     20.58        52.0      52.6      49.3       6      16     335     338    1015    0.00
    03/23/2017 03:40      53    35.5     20.58        52.3      52.6      49.3       7      17     338     309    1015    0.00
    03/23/2017 03:50      53    35.4     20.58        52.1      52.6      49.3       8      20     339     332    1015    0.00
    03/23/2017 04:00      52    35.2     20.58        52.1      52.6      49.3       8      20     338     354    1015    0.00
    03/23/2017 04:10      52    34.9     20.58        52.1      52.6      49.3       8      21     328     350    1015    0.00
    03/23/2017 04:20      53    35.1     20.58        52.0      52.6      49.3       6      14     314     330    1015    0.00
    03/23/2017 04:30      52    34.9     20.58        51.8      52.6      49.3       6      20     312     319    1016    0.00
    03/23/2017 04:40      51    34.7     20.58        52.0      52.6      49.3       8      17     329     343    1016    0.00
    03/23/2017 04:50      50    34.5     20.58        51.9      52.6      49.3       7      16     334     318    1016    0.00
    03/23/2017 05:00      50    34.0     20.58        52.0      52.6      49.3       4      10     310     322    1016    0.00
    03/23/2017 05:10      51    34.2     20.58        52.3      52.6      49.3       5      12     344     335    1016    0.00
    03/23/2017 05:20      50    34.6     20.58        52.1      52.6      49.3       5      11       3      62    1016    0.00
    03/23/2017 05:30      52    34.7     20.58        52.1      52.6      49.3       4      11     351     342    1016    0.00
    03/23/2017 05:40      53    34.8     20.58        51.8      52.6      49.3       6      12     329     339    1016    0.00
    03/23/2017 05:50      51    34.4     20.58        51.8      52.6      49.3       8      21     332     329    1016    0.00
    03/23/2017 06:00      51    34.5     20.58        51.9      52.6      49.3       7      21     331     333    1016    0.00
    03/23/2017 06:10      51    34.4     20.58        51.9      52.6      49.3       8      21     341     353    1016    0.00
    03/23/2017 06:20      53    34.8     20.58        51.7      52.6      49.3       5      16     337     354    1016    0.00
    03/23/2017 06:30      51    34.8     20.58        51.5      52.6      49.3       6      18     336     332    1017    0.00
    03/23/2017 06:40      51    34.2     20.58        51.8      52.6      49.3       6      14     318     344    1017    0.00
    03/23/2017 06:50      50    34.1     20.58        52.0      52.6      49.3       5       9     309     284    1017    0.00
    03/23/2017 07:00      48    33.8     20.58        52.4      52.8      49.3       6      14     293     289    1017    0.00
    03/23/2017 07:10      47    33.7     20.58        52.9      53.2      49.3       6      10     279     311    1017    0.00
    03/23/2017 07:20      44    33.3     20.58        53.5      53.9      49.3       4      12     274     246    1017    0.00
    03/23/2017 07:30      44    32.9     20.58        54.2      54.5      49.3       2       6     298     280    1017    0.00
    03/23/2017 07:40      43    32.6     20.58        54.7      55.1      49.3       2       5     294     337    1017    0.00
    03/23/2017 07:50      41    32.9     20.58        55.4      55.7      49.3       3      10     235     247    1017    0.00
    03/23/2017 08:00      42    32.2     20.58        55.6      55.9      49.3       3      10     242     180    1017    0.00
    03/23/2017 08:10      42    33.1     20.58        55.7      56.4      49.3       3      12     234     343    1018    0.00
    03/23/2017 08:20      42    32.8     20.58        56.0      56.5      49.3       3       9      43      39    1018    0.00
    03/23/2017 08:30      42    33.1     20.58        56.2      56.5      49.3       2       5     331      23    1018    0.00
    03/23/2017 08:40      42    32.4     20.58        56.1      56.5      49.3       4      11      11      33    1018    0.00
    03/23/2017 08:50      39    32.7     20.58        56.8      57.2      49.3       3      10      10       8    1018    0.00
    03/23/2017 09:00      39    32.6     20.58        57.6      58.0      49.3       3      11       7      20    1018    0.00
    03/23/2017 09:10      35    32.8     20.58        58.0      58.5      49.3       4      11     351      27    1018    0.00
    03/23/2017 09:20      35    31.8     20.58        58.8      59.1      49.3       3       7     334      40    1018    0.00
    03/23/2017 09:30      35    31.9     20.58        59.4      59.9      49.3       3       8       0      53    1019    0.00
    03/23/2017 09:40      36    32.2     20.58        59.6      60.0      49.3       3       8      28      58    1019    0.00
    03/23/2017 09:50      34    32.1     20.58        60.3      60.5      49.3       3       9     325       0    1019    0.00
    03/23/2017 10:00      32    31.0     20.58        60.4      61.0      49.3       3      10     338     347    1019    0.00
    03/23/2017 10:10      32    31.8     20.58        61.3      62.0      49.3       3       6     345     341    1019    0.00
    03/23/2017 10:20      32    32.0     20.58        61.9      62.2      49.3       2      10      14       2    1019    0.00
    03/23/2017 10:30      34    31.9     20.58        60.6      62.2      49.3       6      11      37      50    1019    0.00
    03/23/2017 10:40      33    32.6     20.58        61.3      62.2      49.3       2       6      23      81    1019    0.00
    03/23/2017 10:50      32    32.9     20.59        61.9      62.7      49.3       3      10     336     326    1019    0.01
    03/23/2017 11:00      36    32.9     20.59        61.5      62.7      49.3       3      10     317     340    1019    0.00
    03/23/2017 11:10      32    32.5     20.59        62.5      62.8      49.3       3       7     327     300    1019    0.00
    03/23/2017 11:20      34    33.3     20.59        62.4      63.7      49.3       5      15     277     251    1019    0.00
    03/23/2017 11:30      32    32.3     20.59        62.6      63.9      49.3       4      11     316     277    1019    0.00
    03/23/2017 11:40      31    32.4     20.59        63.0      63.9      49.3       4       9     315     338    1019    0.00
    03/23/2017 11:50      30    33.8     20.59        63.6      64.3      49.3       3       9     270     259    1019    0.00
    03/23/2017 12:00      30    32.5     20.59        64.4      65.4      49.3       2       8     325      20    1019    0.00
    03/23/2017 12:10      28    32.4     20.59        65.5      65.8      49.3       5      10     308     340    1019    0.00
    03/23/2017 12:20      26    31.9     20.59        65.5      66.3      49.3       4      10     311     341    1019    0.00
    03/23/2017 12:30      28    31.4     20.59        66.0      66.3      49.3       3      11     336      20    1019    0.00
    03/23/2017 12:40      25    32.0     20.59        66.4      67.2      49.3       4       9     317     331    1018    0.00
    03/23/2017 12:50      24    30.9     20.59        67.1      67.5      49.3       3       9     313     334    1018    0.00
    03/23/2017 13:00      21    26.0     20.59        67.6      67.8      49.3       4      13     334     338    1018    0.00
    03/23/2017 13:10      23    26.3     20.59        67.7      68.1      49.3       5      11     322     329    1018    0.00
    03/23/2017 13:20      19    25.3     20.59        67.9      68.2      49.3       4      12     326     351    1018    0.00
    03/23/2017 13:30      16    22.4     20.59        68.5      69.2      49.3       4      13     325     322    1018    0.00
    03/23/2017 13:40      17    21.1     20.59        68.5      69.2      49.3       6      11       3      17    1018    0.00
    03/23/2017 13:50      21    22.6     20.59        67.5      69.2      49.3       6      13      37     329    1018    0.00
    03/23/2017 14:00      18    25.4     20.59        68.3      69.2      49.3       4       9       8      56    1018    0.00
    03/23/2017 14:10      17    24.0     20.59        68.5      69.2      49.3       3      11      54      46    1017    0.00
    03/23/2017 14:20      20    23.8     20.59        68.1      69.2      49.3       4       9      50      28    1017    0.00
    03/23/2017 14:30      21    25.4     20.59        69.2      70.0      49.3       2       7      80      47    1017    0.00
    03/23/2017 14:40      28    31.6     20.59        69.2      70.0      49.3       3       8     228     246    1017    0.00
    03/23/2017 14:50      27    34.9     20.59        69.3      70.0      49.3       4       9     263     246    1017    0.00
    03/23/2017 15:00      29    34.5     20.59        69.3      70.0      49.3       4       8     288     293    1018    0.00
    03/23/2017 15:10      30    33.8     20.59        68.8      70.0      49.3       3       7     281     305    1018    0.00
    03/23/2017 15:20      29    34.9     20.59        69.1      70.0      49.3       5      12     271     249    1018    0.00
    03/23/2017 15:30      29    35.4     20.59        68.5      70.0      49.3       5      12     282     243    1018    0.00
    03/23/2017 15:40      30    35.7     20.59        68.1      70.0      49.3       5      10     262     267    1017    0.00
    03/23/2017 15:50      33    36.4     20.59        67.7      70.0      49.3       5      11     264     284    1017    0.00
    03/23/2017 16:00      32    36.7     20.59        67.8      70.0      49.3       5      13     253     257    1018    0.00
    03/23/2017 16:10      33    36.4     20.59        67.0      70.0      49.3       5      11     241     239    1017    0.00
    03/23/2017 16:20      32    36.4     20.59        66.8      70.0      49.3       4      14     253     249    1018    0.00
    03/23/2017 16:30      32    35.7     20.59        66.6      70.0      49.3       5      10     266     266    1018    0.00
    03/23/2017 16:40      33    35.8     20.59        66.2      70.0      49.3       3       7     271     275    1018    0.00
    03/23/2017 16:50      32    35.7     20.59        66.3      70.0      49.3       4      10     246     249    1018    0.00
    03/23/2017 17:00      33    35.7     20.59        65.9      70.0      49.3       4       8     246     268    1018    0.00
    03/23/2017 17:10      34    35.9     20.59        65.7      70.0      49.3       3       9     248     246    1018    0.00
    03/23/2017 17:20      35    36.8     20.59        65.5      70.0      49.3       3       9     253     246    1018    0.00
    03/23/2017 17:30      38    36.8     20.59        64.5      70.0      49.3       6      12     262     260    1019    0.00
    03/23/2017 17:40      39    37.3     20.59        63.6      70.0      49.3       5      10     259     236    1019    0.00
    03/23/2017 17:50      41    37.8     20.59        62.7      70.0      49.3       5       9     271     231    1019    0.00
    03/23/2017 18:00      42    38.3     20.59        61.8      70.0      49.3       4       9     274     268    1019    0.00
    03/23/2017 18:10      43    38.2     20.59        60.9      70.0      49.3       4      10     270     255    1019    0.00
    03/23/2017 18:20      44    38.0     20.59        60.3      70.0      49.3       3       7     265     258    1019    0.00
    03/23/2017 18:30      45    38.1     20.59        59.8      70.0      49.3       2       5     262     242    1019    0.00
    03/23/2017 18:40      44    37.7     20.59        59.3      70.0      49.3       1       3     235     249    1019    0.00
    03/23/2017 18:50      48    37.7     20.59        58.5      70.0      49.3       2       5     243     248    1020    0.00
    03/23/2017 19:00      50    39.5     20.59        58.7      70.0      49.3       2       4     282     276    1020    0.00
    03/23/2017 19:10      53    40.6     20.59        58.5      70.0      49.3       2       6     276     251    1020    0.00
    03/23/2017 19:20      54    41.3     20.59        58.2      70.0      49.3       0       2     284     294    1020    0.00
    03/23/2017 19:30      56    41.7     20.59        57.8      70.0      49.3       0       2     288     309    1020    0.00
    03/23/2017 19:40      57    41.8     20.59        57.1      70.0      49.3       0       0     286     287    1020    0.00
    03/23/2017 19:50      58    42.0     20.59        56.9      70.0      49.3       0       0       0     309    1020    0.00
    03/23/2017 20:00      59    42.2     20.59        56.5      70.0      49.3       0       0       0     299    1021    0.00
    03/23/2017 20:10      60    42.3     20.59        56.0      70.0      49.3       0       1      30      39    1021    0.00
    03/23/2017 20:20      60    42.3     20.59        56.1      70.0      49.3       0       0       0       3    1021    0.00
    03/23/2017 20:30      62    42.4     20.59        55.8      70.0      49.3       0       0       0     278    1021    0.00
    03/23/2017 20:40      61    42.6     20.59        55.5      70.0      49.3       0       1     102     100    1021    0.00
    03/23/2017 20:50      61    42.3     20.59        55.7      70.0      49.3       0       1     113      76    1021    0.00
    03/23/2017 21:00      62    42.5     20.59        55.3      70.0      49.3       0       3      84      99    1021    0.00
    03/23/2017 21:10      63    42.7     20.59        55.5      70.0      49.3       0       2      89      96    1021    0.00
    03/23/2017 21:20      65    43.4     20.59        55.5      70.0      49.3       2       4      69      64    1021    0.00
    03/23/2017 21:30      67    44.5     20.59        55.6      70.0      49.3       0       4      83      82    1021    0.00
    03/23/2017 21:40      70    44.8     20.59        55.0      70.0      49.3       0       2      83      81    1021    0.00
    03/23/2017 21:50      70    45.5     20.59        55.0      70.0      49.3       0       2      79      64    1021    0.00
    03/23/2017 22:00      71    45.7     20.59        54.9      70.0      49.3       2       3      85      97    1021    0.00
    03/23/2017 22:10      72    45.9     20.59        54.7      70.0      49.3       1       2      82      71    1021    0.00
    03/23/2017 22:20      73    45.9     20.59        54.4      70.0      49.3       0       3      71      53    1022    0.00
    03/23/2017 22:30      74    46.0     20.59        54.2      70.0      49.3       0       2      89      55    1022    0.00
    03/23/2017 22:40      75    45.9     20.59        53.8      70.0      49.3       1       3      72      75    1022    0.00
    03/23/2017 22:50      76    46.1     20.59        53.6      70.0      49.3       2       3      82      86    1022    0.00
    03/23/2017 23:00      77    46.2     20.59        53.4      70.0      49.3       2       5      82      72    1022    0.00
    03/23/2017 23:10      76    46.1     20.59        53.4      70.0      49.3       3       5      79      65    1022    0.00
    03/23/2017 23:20      76    46.0     20.59        53.4      70.0      49.3       3       7      73      79    1022    0.00
    03/23/2017 23:30      77    46.2     20.59        53.4      70.0      49.3       4       7      78      93    1022    0.00
    03/23/2017 23:40      78    46.5     20.59        53.3      70.0      49.3       4       8      78      86    1022    0.00
    03/23/2017 23:50      78    46.5     20.59        53.1      70.0      49.3       5       8      77      80    1022    0.00
    03/24/2017 00:00      79    46.5     20.59        52.9      70.0      49.3       4       7      77      76    1022    0.00
    03/24/2017 00:10      79    46.5     20.59        52.7      52.9      52.5       2       4      62      64    1022    0.00
    03/24/2017 00:20      80    46.3     20.59        52.5      52.9      52.1       1       3      55      52    1022    0.00
    03/24/2017 00:30      81    46.3     20.59        52.2      52.9      51.8       0       3      18      34    1022    0.00
    03/24/2017 00:40      81    45.9     20.59        51.6      52.9      51.2       0       0       0      51    1022    0.00
    03/24/2017 00:50      81    45.7     20.59        51.2      52.9      50.9       0       1      22      36    1022    0.00
    03/24/2017 01:00      81    45.4     20.59        50.9      52.9      50.7       0       2      39      11    1022    0.00
    03/24/2017 01:10      81    45.5     20.59        51.1      52.9      50.7       0       3      36      -0    1022    0.00
    03/24/2017 01:20      78    45.5     20.59        51.5      52.9      50.7       1       3      27      51    1022    0.00
    03/24/2017 01:30      77    44.4     20.59        51.3      52.9      50.7       1       3     338     337    1022    0.00
    03/24/2017 01:40      77    44.2     20.59        51.1      52.9      50.7       1       3     343     345    1022    0.00
    03/24/2017 01:50      77    44.5     20.59        51.3      52.9      50.7       2       3     347     345    1022    0.00
    03/24/2017 02:00      77    44.5     20.59        51.4      52.9      50.7       0       2     344     351    1022    0.00
    03/24/2017 02:10      78    44.4     20.59        51.1      52.9      50.7       0       2     335     339    1022    0.00
    03/24/2017 02:20      79    44.0     20.59        50.4      52.9      50.0       1       2     272     239    1022    0.00
    03/24/2017 02:30      81    44.1     20.59        50.0      52.9      49.8       0       2     298     277    1022    0.00
    03/24/2017 02:40      82    44.2     20.59        49.8      52.9      49.5       0       1     312     312    1022    0.00
    03/24/2017 02:50      82    44.5     20.59        49.7      52.9      49.5       0       2     324     316    1022    0.00
    03/24/2017 03:00      82    44.5     20.59        49.7      52.9      49.2       0       2     318     332    1022    0.00
    03/24/2017 03:10      83    44.0     20.59        49.1      52.9      48.8       0       1     310     318    1022    0.00
    03/24/2017 03:20      84    44.4     20.59        49.1      52.9      48.8       1       2     325     334    1022    0.00
    03/24/2017 03:30      84    44.4     20.59        49.0      52.9      48.8       0       2     335     328    1022    0.00
    03/24/2017 03:40      84    44.1     20.59        48.7      52.9      48.5       0       1     357      13    1022    0.00
    03/24/2017 03:50      85    44.3     20.59        48.7      52.9      48.5       0       1     324     343    1022    0.00
    03/24/2017 04:00      85    44.3     20.59        48.7      52.9      48.5       0       2     359      45    1022    0.00
    03/24/2017 04:10      83    44.1     20.59        48.7      52.9      48.4       3       4      41      35    1022    0.00
    03/24/2017 04:20      84    43.4     20.59        48.2      52.9      47.9       2       4      10      39    1022    0.00
    03/24/2017 04:30      84    43.3     20.59        48.0      52.9      47.7       0       2      29     354    1022    0.00
    03/24/2017 04:40      83    43.1     20.59        47.9      52.9      47.5       0       1     326     326    1022    0.00
    03/24/2017 04:50      83    42.8     20.59        47.6      52.9      47.4       0       0     317     314    1022    0.00
    03/24/2017 05:00      83    42.2     20.59        47.1      52.9      46.6       0       0       0     320    1022    0.00
    03/24/2017 05:10      84    42.0     20.59        46.7      52.9      46.5       0       0     295     308    1022    0.00
    03/24/2017 05:20      85    42.1     20.59        46.5      52.9      46.3       0       0     284     284    1022    0.00
    03/24/2017 05:30      85    42.0     20.59        46.2      52.9      46.0       0       0       0     285    1022    0.00
    03/24/2017 05:40      86    42.0     20.59        46.0      52.9      45.8       0       0       0     332    1022    0.00
    03/24/2017 05:50      87    42.1     20.59        45.9      52.9      45.7       0       2      86      86    1022    0.00
    03/24/2017 06:00      87    42.6     20.59        46.4      52.9      45.7       1       3      71      80    1022    0.00
    03/24/2017 06:10      86    42.7     20.59        46.6      52.9      45.7       0       1     328     347    1023    0.00
    03/24/2017 06:20      86    42.5     20.59        46.5      52.9      45.7       0       0     317     317    1023    0.00
    03/24/2017 06:30      86    42.8     20.59        46.8      52.9      45.7       0       0     328     327    1023    0.00
    03/24/2017 06:40      86    43.3     20.59        47.4      52.9      45.7       0       0       0     328    1023    0.00
    03/24/2017 06:50      84    44.6     20.59        48.8      52.9      45.7       0       0     291     283    1023    0.00
    03/24/2017 07:00      81    45.1     20.59        50.1      52.9      45.7       0       1     269     268    1023    0.00
    03/24/2017 07:10      78    45.0     20.59        51.1      52.9      45.7       0       0     278     266    1023    0.00
    03/24/2017 07:20      75    45.3     20.59        52.4      53.2      45.7       0       0     212     255    1023    0.00
    03/24/2017 07:30      73    45.6     20.59        53.8      54.2      45.7       0       1     235     226    1023    0.00
    03/24/2017 07:40      74    45.5     20.59        53.8      54.2      45.7       0       1     254     237    1023    0.00
    03/24/2017 07:50      73    46.3     20.59        54.6      55.1      45.7       0       2     198     212    1023    0.00
    03/24/2017 08:00      68    46.5     20.59        55.8      56.4      45.7       0       3     197     211    1023    0.00
    03/24/2017 08:10      66    45.9     20.59        56.1      56.6      45.7       1       3     191     150    1023    0.00
    03/24/2017 08:20      65    45.4     20.59        56.8      57.4      45.7       0       3     198     164    1023    0.00
    03/24/2017 08:30      58    45.0     20.59        58.3      58.9      45.7       0       3     165     190    1023    0.00
    03/24/2017 08:40      59    43.0     20.59        57.8      58.9      45.7       0       3     187     192    1023    0.00
    03/24/2017 08:50      53    43.0     20.59        58.9      59.7      45.7       0       4      85     140    1023    0.00
    03/24/2017 09:00      55    43.3     20.59        59.9      60.3      45.7       2       5     141     150    1023    0.00
    03/24/2017 09:10      52    43.3     20.59        60.5      60.8      45.7       3       7     153     145    1023    0.00
    03/24/2017 09:20      49    41.3     20.59        60.8      61.1      45.7       2       5     109     149    1023    0.00
    03/24/2017 09:30      50    42.6     20.59        60.9      61.6      45.7       4       7     189     181    1023    0.00
    03/24/2017 09:40      47    41.1     20.59        60.7      61.6      45.7       2       4     249     243    1023    0.00
    03/24/2017 09:50      45    40.7     20.59        61.4      61.9      45.7       1       4     101      67    1023    0.00
    03/24/2017 10:00      45    41.4     20.59        62.4      63.4      45.7       1       3     119     149    1023    0.00
    03/24/2017 10:10      44    41.0     20.59        63.0      63.4      45.7       2       5     183     177    1023    0.00
    03/24/2017 10:20      44    40.7     20.59        63.0      63.7      45.7       4       7     195     175    1023    0.00
    03/24/2017 10:30      43    40.2     20.59        63.2      63.8      45.7       3       6     203     201    1023    0.00
    03/24/2017 10:40      37    39.2     20.59        63.6      64.3      45.7       1       4     269     296    1023    0.00
    03/24/2017 10:50      40    38.8     20.59        64.0      64.4      45.7       2       4      12     306    1022    0.00
    03/24/2017 11:00      39    40.0     20.59        65.0      65.6      45.7       3       7     239     251    1022    0.00
    03/24/2017 11:10      38    38.7     20.59        65.3      66.0      45.7       3       7     222     212    1022    0.00
    03/24/2017 11:20      34    37.8     20.59        65.9      66.3      45.7       1       5     235     237    1022    0.00
    03/24/2017 11:30      36    38.9     20.59        67.3      68.4      45.7       3       8     171     244    1022    0.00
    03/24/2017 11:40      32    37.1     20.59        67.0      68.4      45.7       3       7     224     252    1022    0.00
    03/24/2017 11:50      34    36.7     20.59        66.9      68.4      45.7       2       5     153     197    1022    0.00
    03/24/2017 12:00      34    38.2     20.59        68.0      68.4      45.7       3       7     192     164    1022    0.00
    03/24/2017 12:10      35    39.5     20.59        68.5      68.7      45.7       3       7     197     161    1022    0.00
    03/24/2017 12:20      38    40.2     20.59        68.2      68.9      45.7       5       8     181     193    1021    0.00
    03/24/2017 12:30      34    39.8     20.59        68.8      69.7      45.7       2       9     212     186    1021    0.00
    03/24/2017 12:40      34    40.3     20.59        69.2      70.0      45.7       3      10     144     193    1021    0.00
    03/24/2017 12:50      37    42.1     20.59        69.8      70.5      45.7       3       7     202     148    1021    0.00
    03/24/2017 13:00      37    41.9     20.59        69.9      70.6      45.7       3       8     209     187    1021    0.00
    03/24/2017 13:10      33    41.6     20.59        70.8      71.4      45.7       2       8     272     266    1021    0.00
    03/24/2017 13:20      33    40.2     20.59        70.7      71.4      45.7       4      10     266     263    1020    0.00
    03/24/2017 13:30      32    38.6     20.59        70.1      71.4      45.7       6      16     266     247    1020    0.00
    03/24/2017 13:40      30    37.5     20.59        70.5      71.4      45.7       5      11     273     272    1020    0.00
    03/24/2017 13:50      31    37.6     20.59        70.0      71.4      45.7       6      17     257     258    1020    0.00
    03/24/2017 14:00      33    38.9     20.59        69.4      71.4      45.7       5      12     267     257    1020    0.00
    03/24/2017 14:10      33    39.0     20.59        69.2      71.4      45.7       5      13     277     264    1020    0.00
    03/24/2017 14:20      32    39.0     20.59        68.8      71.4      45.7       5      13     272     239    1020    0.00
    03/24/2017 14:30      35    39.1     20.59        68.4      71.4      45.7       7      16     278     246    1020    0.00
    03/24/2017 14:40      34    39.1     20.59        67.3      71.4      45.7       7      16     272     251    1020    0.00
    03/24/2017 14:50      37    40.1     20.59        67.2      71.4      45.7       5      11     282     276    1020    0.00
    03/24/2017 15:00      40    41.4     20.59        66.6      71.4      45.7       5      12     274     256    1020    0.00
    03/24/2017 15:10      42    42.1     20.59        66.5      71.4      45.7       5      11     286     252    1020    0.00
    03/24/2017 15:20      45    43.7     20.59        66.8      71.4      45.7       5      11     279     251    1020    0.00
    03/24/2017 15:30      45    44.6     20.59        66.5      71.4      45.7       5      12     272     288    1020    0.00
    03/24/2017 15:40      48    45.0     20.59        66.0      71.4      45.7       6      11     266     255    1020    0.00
    03/24/2017 15:50      49    45.5     20.59        65.3      71.4      45.7       5      10     258     235    1020    0.00
    03/24/2017 16:00      49    45.5     20.59        65.5      71.4      45.7       5      11     266     252    1020    0.00
    03/24/2017 16:10      49    45.2     20.59        65.0      71.4      45.7       6      13     260     256    1020    0.00
    03/24/2017 16:20      49    44.7     20.59        64.7      71.4      45.7       6      11     261     257    1020    0.00
    03/24/2017 16:30      49    44.8     20.59        64.3      71.4      45.7       5      11     269     241    1020    0.00
    03/24/2017 16:40      51    45.1     20.59        64.1      71.4      45.7       4       9     269     266    1020    0.00
    03/24/2017 16:50      53    45.4     20.59        63.1      71.4      45.7       4       9     267     245    1020    0.00
    03/24/2017 17:00      54    45.9     20.59        62.9      71.4      45.7       4      11     268     246    1020    0.00
    03/24/2017 17:10      56    46.0     20.59        62.2      71.4      45.7       4       9     271     250    1020    0.00
    03/24/2017 17:20      60    46.8     20.59        61.7      71.4      45.7       6      11     257     270    1019    0.00
    03/24/2017 17:30      60    47.0     20.59        60.8      71.4      45.7       6      12     254     253    1020    0.00
    03/24/2017 17:40      62    46.9     20.59        60.1      71.4      45.7       6      12     245     262    1020    0.00
    03/24/2017 17:50      63    46.9     20.59        59.5      71.4      45.7       5      10     246     245    1020    0.00
    03/24/2017 18:00      64    46.9     20.59        59.1      71.4      45.7       5      10     258     250    1020    0.00
    03/24/2017 18:10      64    46.7     20.59        58.7      71.4      45.7       5      10     255     255    1020    0.00
    03/24/2017 18:20      64    46.3     20.59        58.3      71.4      45.7       5      12     254     261    1020    0.00
    03/24/2017 18:30      64    45.7     20.59        57.8      71.4      45.7       6      11     259     246    1020    0.00
    03/24/2017 18:40      63    45.1     20.59        57.5      71.4      45.7       4      10     274     247    1020    0.00
    03/24/2017 18:50      59    44.2     20.59        57.2      71.4      45.7       4      10     265     260    1020    0.00
    03/24/2017 19:00      58    42.6     20.59        56.9      71.4      45.7       4       8     256     258    1020    0.00
    03/24/2017 19:10      57    41.6     20.59        56.5      71.4      45.7       3       8     264     250    1020    0.00
    03/24/2017 19:20      56    40.9     20.59        56.3      71.4      45.7       2       7     262     248    1020    0.00
    03/24/2017 19:30      56    40.6     20.59        56.1      71.4      45.7       2       7     252     266    1020    0.00
    03/24/2017 19:40      56    40.6     20.59        55.9      71.4      45.7       2       6     226     256    1020    0.00
    03/24/2017 19:50      57    40.7     20.59        55.7      71.4      45.7       2       5     230     259    1020    0.00
    03/24/2017 20:00      59    40.9     20.59        55.4      71.4      45.7       2       6     228     211    1020    0.00
    03/24/2017 20:10      59    41.0     20.59        55.2      71.4      45.7       1       3     214     201    1020    0.00
    03/24/2017 20:20      61    41.2     20.59        55.0      71.4      45.7       0       4     215     211    1020    0.00
    03/24/2017 20:30      63    42.3     20.59        55.0      71.4      45.7       2       4     229     240    1020    0.00
    03/24/2017 20:40      65    42.9     20.59        54.9      71.4      45.7       2       4     224     203    1020    0.00
    03/24/2017 20:50      66    43.4     20.59        54.7      71.4      45.7       2       5     223     250    1021    0.00
    03/24/2017 21:00      66    43.1     20.59        54.3      71.4      45.7       1       5     225     224    1021    0.00
    03/24/2017 21:10      67    43.2     20.59        54.2      71.4      45.7       1       4     207     199    1021    0.00
    03/24/2017 21:20      68    43.3     20.59        53.9      71.4      45.7       2       3     201     199    1021    0.00
    03/24/2017 21:30      68    43.5     20.59        53.8      71.4      45.7       0       2     182     189    1020    0.00
    03/24/2017 21:40      72    44.1     20.59        53.7      71.4      45.7       2       5     176     163    1020    0.00
    03/24/2017 21:50      72    45.0     20.59        53.8      71.4      45.7       1       4     165     149    1020    0.00
    03/24/2017 22:00      73    44.9     20.59        53.4      71.4      45.7       2       5     213     202    1020    0.00
    03/24/2017 22:10      72    44.7     20.59        53.2      71.4      45.7       2       4     214     212    1021    0.00
    03/24/2017 22:20      73    44.6     20.59        53.1      71.4      45.7       0       0     291     294    1020    0.00
    03/24/2017 22:30      74    44.7     20.59        52.9      71.4      45.7       0       0       0     302    1020    0.00
    03/24/2017 22:40      75    45.0     20.59        52.9      71.4      45.7       0       0       0     261    1020    0.00
    03/24/2017 22:50      74    45.1     20.59        53.0      71.4      45.7       0       3     188     208    1021    0.00
    03/24/2017 23:00      74    45.4     20.59        53.3      71.4      45.7       1       3     172     186    1020    0.00
    03/24/2017 23:10      74    45.5     20.59        53.6      71.4      45.7       0       2     121      85    1020    0.00
    03/24/2017 23:20      74    45.4     20.59        53.6      71.4      45.7       0       2     156     142    1020    0.00
    03/24/2017 23:30      74    45.4     20.59        53.4      71.4      45.7       0       2     163     167    1020    0.00
    03/24/2017 23:40      75    45.5     20.59        53.4      71.4      45.7       0       2     209     206    1020    0.00
    03/24/2017 23:50      75    45.7     20.59        53.4      71.4      45.7       1       5     240     245    1021    0.00
    03/25/2017 00:00      74    45.9     20.59        53.8      71.4      45.7       3       5     263     248    1021    0.00
    03/25/2017 00:10      74    46.0     20.59        53.9      54.2      53.7       2       4     293     297    1021    0.00
    03/25/2017 00:20      75    46.1     20.59        54.1      54.3      53.7       1       4      21      63    1020    0.00
    03/25/2017 00:30      78    47.1     20.59        54.1      54.4      53.7       3       5      79      78    1020    0.00
    03/25/2017 00:40      80    47.6     20.59        53.8      54.4      53.5       3       5      85      91    1020    0.00
    03/25/2017 00:50      81    47.7     20.59        53.5      54.4      53.2       1       4      10      76    1019    0.00
    03/25/2017 01:00      83    47.9     20.59        53.3      54.4      53.0       1       4     296     298    1019    0.00
    03/25/2017 01:10      83    48.0     20.59        53.2      54.4      53.0       2       3     327     327    1019    0.00
    03/25/2017 01:20      82    48.0     20.59        53.2      54.4      53.0       1       3     307     343    1019    0.00
    03/25/2017 01:30      82    47.8     20.59        53.1      54.4      52.7       0       1     240     241    1019    0.00
    03/25/2017 01:40      83    47.7     20.59        52.9      54.4      52.7       0       2     250     252    1019    0.00
    03/25/2017 01:50      83    47.7     20.59        52.8      54.4      52.5       0       1     236     259    1019    0.00
    03/25/2017 02:00      83    47.6     20.59        52.6      54.4      52.4       1       3     220     209    1019    0.00
    03/25/2017 02:10      84    47.7     20.59        52.5      54.4      52.4       3       5     210     204    1019    0.00
    03/25/2017 02:20      84    47.7     20.59        52.4      54.4      52.1       2       6     217     214    1018    0.00
    03/25/2017 02:30      84    47.5     20.59        52.1      54.4      52.0       1       4     224     205    1019    0.00
    03/25/2017 02:40      85    47.7     20.59        52.1      54.4      51.9       0       2     307     310    1018    0.00
    03/25/2017 02:50      86    47.7     20.59        52.0      54.4      51.7       1       3     295     288    1019    0.00
    03/25/2017 03:00      86    47.7     20.59        51.8      54.4      51.6       1       4     278     292    1019    0.00
    03/25/2017 03:10      86    47.6     20.59        51.5      54.4      51.3       0       2     277     277    1019    0.00
    03/25/2017 03:20      87    47.5     20.59        51.3      54.4      51.0       0       2     286     305    1018    0.00
    03/25/2017 03:30      87    47.3     20.59        51.0      54.4      50.7       0       2     307     287    1018    0.00
    03/25/2017 03:40      87    47.3     20.59        50.9      54.4      50.7       2       3      64      68    1018    0.00
    03/25/2017 03:50      87    47.4     20.59        51.0      54.4      50.7       2       3      63      58    1018    0.00
    03/25/2017 04:00      87    47.2     20.59        50.8      54.4      50.6       1       3      40      37    1018    0.00
    03/25/2017 04:10      87    47.3     20.59        50.9      54.4      50.6       2       3      43      32    1018    0.00
    03/25/2017 04:20      87    46.6     20.59        50.4      54.4      50.0       0       1     285     255    1018    0.00
    03/25/2017 04:30      88    46.5     20.59        50.1      54.4      49.9       0       2     322     329    1018    0.00
    03/25/2017 04:40      88    46.8     20.59        50.2      54.4      49.9       1       3     333     349    1018    0.00
    03/25/2017 04:50      88    46.8     20.59        50.1      54.4      49.9       0       2     343     333    1018    0.00
    03/25/2017 05:00      88    46.5     20.59        49.9      54.4      49.5       0       2      44      83    1018    0.00
    03/25/2017 05:10      88    46.5     20.59        49.8      54.4      49.5       1       3      32      23    1018    0.00
    03/25/2017 05:20      88    46.2     20.59        49.5      54.4      49.1       0       2     335     341    1018    0.00
    03/25/2017 05:30      88    45.4     20.59        48.8      54.4      48.1       0       2     277     259    1018    0.00
    03/25/2017 05:40      89    45.1     20.59        48.5      54.4      48.1       2       3     255     249    1018    0.00
    03/25/2017 05:50      89    45.4     20.59        48.5      54.4      48.1       2       4     255     248    1018    0.00
    03/25/2017 06:00      89    45.3     20.59        48.5      54.4      48.1       0       2     294     288    1018    0.00
    03/25/2017 06:10      89    45.3     20.59        48.4      54.4      48.1       0       1     299     332    1018    0.00
    03/25/2017 06:20      89    45.4     20.59        48.5      54.4      48.1       0       1      57      75    1018    0.00
    03/25/2017 06:30      89    46.0     20.59        49.0      54.4      48.1       2       3      54      42    1018    0.00
    03/25/2017 06:40      89    46.5     20.59        49.6      54.4      48.1       1       3      53      28    1018    0.00
    03/25/2017 06:50      87    47.2     20.59        50.6      54.4      48.1       2       4      38      48    1018    0.00
    03/25/2017 07:00      84    47.6     20.59        51.9      54.4      48.1       1       3      58      50    1018    0.00
    03/25/2017 07:10      79    47.1     20.59        52.7      54.4      48.1       1       3     183     160    1019    0.00
    03/25/2017 07:20      78    46.9     20.59        53.4      54.4      48.1       2       4     184     188    1019    0.00
    03/25/2017 07:30      74    46.9     20.59        54.4      54.9      48.1       0       1     169     149    1019    0.00
    03/25/2017 07:40      71    46.8     20.59        55.4      56.0      48.1       0       3     145      97    1019    0.00
    03/25/2017 07:50      68    46.7     20.59        56.5      57.0      48.1       2       4     164     153    1019    0.00
    03/25/2017 08:00      69    46.4     20.59        56.3      57.0      48.1       1       3     206     171    1019    0.00
    03/25/2017 08:10      70    46.6     20.59        56.4      57.0      48.1       0       3      82     146    1019    0.00
    03/25/2017 08:20      68    47.1     20.59        56.9      57.5      48.1       2       4     181     172    1019    0.00
    03/25/2017 08:30      68    47.5     20.59        58.1      58.5      48.1       2       6     140     169    1019    0.00
    03/25/2017 08:40      66    47.3     20.59        58.3      58.7      48.1       3       6      79      91    1019    0.00
    03/25/2017 08:50      64    47.2     20.59        59.0      59.5      48.1       3       5      74     103    1019    0.00
    03/25/2017 09:00      64    47.0     20.59        59.2      59.9      48.1       3       7     138     168    1019    0.00
    03/25/2017 09:10      62    47.1     20.60        59.8      60.3      48.1       3       6     160      87    1019    0.01
    03/25/2017 09:20      60    46.7     20.60        60.2      60.8      48.1       3       6      91      88    1018    0.00
    03/25/2017 09:30      57    46.6     20.60        60.6      61.6      48.1       3       6     190     171    1018    0.00
    03/25/2017 09:40      55    46.4     20.60        61.7      62.5      48.1       2       5     177     171    1018    0.00
    03/25/2017 09:50      55    45.5     20.60        61.6      62.5      48.1       2       6     181      83    1018    0.00
    03/25/2017 10:00      54    45.5     20.60        61.7      62.5      48.1       4       7     130     169    1018    0.00
    03/25/2017 10:10      52    46.1     20.60        62.8      64.0      48.1       3       8     161     219    1018    0.00
    03/25/2017 10:20      54    46.1     20.60        63.9      64.3      48.1       3       7     153     174    1018    0.00
    03/25/2017 10:30      51    46.3     20.60        64.2      64.6      48.1       3       6     207     200    1018    0.00
    03/25/2017 10:40      51    45.9     20.60        63.9      64.6      48.1       3       6     265     182    1018    0.00
    03/25/2017 10:50      54    45.9     20.60        64.0      64.7      48.1       2       8     269     252    1018    0.00
    03/25/2017 11:00      49    45.4     20.60        63.9      64.7      48.1       2       6     228     236    1018    0.00
    03/25/2017 11:10      51    45.3     20.60        64.7      65.8      48.1       2       4     230     231    1018    0.00
    03/25/2017 11:20      48    45.8     20.60        66.0      66.7      48.1       2       9     232     169    1017    0.00
    03/25/2017 11:30      48    46.4     20.60        66.0      66.8      48.1       4      10     200     192    1017    0.00
    03/25/2017 11:40      51    46.2     20.60        66.2      67.0      48.1       3       9     170     167    1017    0.00
    03/25/2017 11:50      50    46.2     20.60        65.8      67.0      48.1       4       7     187     152    1017    0.00
    03/25/2017 12:00      53    46.1     20.60        65.1      67.0      48.1       3       8     195     178    1017    0.00
    03/25/2017 12:10      50    47.2     20.60        65.8      67.3      48.1       4       6     179     150    1017    0.00
    03/25/2017 12:20      45    46.8     20.60        68.1      69.0      48.1       4      10     185     299    1017    0.00
    03/25/2017 12:30      49    46.5     20.60        67.5      69.0      48.1       4       9     274     240    1017    0.00
    03/25/2017 12:40      46    46.4     20.60        67.1      69.0      48.1       3       7     247     243    1017    0.00
    03/25/2017 12:50      46    45.8     20.60        67.1      69.0      48.1       4      10     278     260    1016    0.00
    03/25/2017 13:00      47    46.8     20.60        67.5      69.0      48.1       4       7     256     235    1016    0.00
    03/25/2017 13:10      43    46.1     20.60        68.0      69.0      48.1       4      10     243     224    1016    0.00
    03/25/2017 13:20      42    44.6     20.60        68.5      69.7      48.1       4       9     235     235    1016    0.00
    03/25/2017 13:30      43    44.2     20.60        67.6      69.7      48.1       4       9     218     225    1016    0.00
    03/25/2017 13:40      41    43.8     20.60        68.3      69.7      48.1       5      13     236     242    1016    0.00
    03/25/2017 13:50      45    45.0     20.60        68.7      69.7      48.1       5      13     242     263    1016    0.00
    03/25/2017 14:00      46    46.3     20.60        67.5      69.7      48.1       4       9     259     247    1016    0.00
    03/25/2017 14:10      39    44.9     20.60        67.7      69.7      48.1       4      11     281     282    1015    0.00
    03/25/2017 14:20      42    44.3     20.60        68.2      69.7      48.1       5      12     259     241    1015    0.00
    03/25/2017 14:30      42    44.3     20.60        68.4      69.7      48.1       4       9     277     246    1015    0.00
    03/25/2017 14:40      42    44.5     20.60        68.4      69.7      48.1       5      12     236     257    1015    0.00
    03/25/2017 14:50      43    44.7     20.60        68.0      69.7      48.1       5      11     237     241    1015    0.00
    03/25/2017 15:00      46    44.9     20.60        66.9      69.7      48.1       5      10     258     277    1015    0.00
    03/25/2017 15:10      46    45.3     20.60        67.2      69.7      48.1       6      15     277     244    1015    0.00
    03/25/2017 15:20      47    46.4     20.60        67.5      69.7      48.1       6      13     275     231    1015    0.00
    03/25/2017 15:30      48    46.5     20.60        67.4      69.7      48.1       6      13     285     286    1015    0.00
    03/25/2017 15:40      47    46.5     20.60        66.4      69.7      48.1       7      16     261     247    1015    0.00
    03/25/2017 15:50      49    45.7     20.60        65.8      69.7      48.1       8      16     271     285    1015    0.00
    03/25/2017 16:00      44    44.4     20.60        65.1      69.7      48.1       6      13     271     247    1015    0.00
    03/25/2017 16:10      51    45.0     20.60        64.7      69.7      48.1       7      16     280     256    1015    0.00
    03/25/2017 16:20      49    46.1     20.60        64.7      69.7      48.1       5      11     267     242    1015    0.00
    03/25/2017 16:30      51    45.7     20.60        64.7      69.7      48.1       6      13     253     252    1015    0.00
    03/25/2017 16:40      49    45.4     20.60        64.7      69.7      48.1       5      11     275     251    1015    0.00
    03/25/2017 16:50      50    44.6     20.60        64.1      69.7      48.1       5      12     271     251    1015    0.00
    03/25/2017 17:00      50    44.9     20.60        63.9      69.7      48.1       6      11     258     247    1015    0.00
    03/25/2017 17:10      52    44.9     20.60        63.5      69.7      48.1       5      11     266     226    1015    0.00
    03/25/2017 17:20      53    45.6     20.60        63.3      69.7      48.1       4      10     252     259    1015    0.00
    03/25/2017 17:30      55    45.8     20.60        62.8      69.7      48.1       5      11     255     263    1015    0.00
    03/25/2017 17:40      56    46.3     20.60        62.5      69.7      48.1       4       9     263     242    1015    0.00
    03/25/2017 17:50      57    46.6     20.60        62.1      69.7      48.1       4       8     269     267    1015    0.00
    03/25/2017 18:00      58    46.7     20.60        61.8      69.7      48.1       3      10     245     261    1015    0.00
    03/25/2017 18:10      59    46.5     20.60        60.9      69.7      48.1       2       5     222     221    1015    0.00
    03/25/2017 18:20      60    46.2     20.60        60.3      69.7      48.1       2       6     220     207    1015    0.00
    03/25/2017 18:30      61    46.3     20.60        59.9      69.7      48.1       2       6     251     266    1015    0.00
    03/25/2017 18:40      61    46.3     20.60        59.8      69.7      48.1       2       5     249     264    1015    0.00
    03/25/2017 18:50      62    46.3     20.60        59.4      69.7      48.1       3       8     252     261    1015    0.00
    03/25/2017 19:00      64    46.4     20.60        59.0      69.7      48.1       2       6     239     264    1016    0.00
    03/25/2017 19:10      64    46.5     20.60        58.5      69.7      48.1       2       5     221     208    1016    0.00
    03/25/2017 19:20      65    46.5     20.60        58.2      69.7      48.1       0       4     234     248    1016    0.00
    03/25/2017 19:30      66    46.6     20.60        58.0      69.7      48.1       2       5     205     189    1016    0.00
    03/25/2017 19:40      68    46.7     20.60        57.6      69.7      48.1       2       4     188     184    1016    0.00
    03/25/2017 19:50      68    46.8     20.60        57.3      69.7      48.1       0       3     189     193    1016    0.00
    03/25/2017 20:00      68    47.1     20.60        57.5      69.7      48.1       1       3      79      58    1016    0.00
    03/25/2017 20:10      66    46.9     20.60        57.9      69.7      48.1       1       3     103      99    1016    0.00
    03/25/2017 20:20      67    46.7     20.60        57.8      69.7      48.1       2       4      73      46    1016    0.00
    03/25/2017 20:30      69    47.5     20.60        57.6      69.7      48.1       1       3     101      70    1016    0.00
    03/25/2017 20:40      72    48.0     20.60        57.3      69.7      48.1       2       4      86      97    1016    0.00
    03/25/2017 20:50      73    48.4     20.60        57.2      69.7      48.1       2       5      83      88    1016    0.00
    03/25/2017 21:00      74    48.6     20.60        57.0      69.7      48.1       2       3      65      40    1016    0.00
    03/25/2017 21:10      75    48.3     20.60        56.4      69.7      48.1       0       2     214     222    1016    0.00
    03/25/2017 21:20      77    48.4     20.60        55.7      69.7      48.1       0       0     146     150    1016    0.00
    03/25/2017 21:30      77    48.4     20.60        55.5      69.7      48.1       0       0       0     282    1016    0.00
    03/25/2017 21:40      78    48.3     20.60        55.2      69.7      48.1       0       0     294     294    1016    0.00
    03/25/2017 21:50      78    48.0     20.60        54.8      69.7      48.1       0       1     238     293    1016    0.00
    03/25/2017 22:00      77    47.5     20.60        54.4      69.7      48.1       0       2     185     159    1016    0.00
    03/25/2017 22:10      77    46.9     20.60        54.0      69.7      48.1       0       2     270     294    1016    0.00
    03/25/2017 22:20      77    47.0     20.60        54.0      69.7      48.1       0       1      11     339    1016    0.00
    03/25/2017 22:30      76    46.8     20.60        54.1      69.7      48.1       0       2     218     236    1016    0.00
    03/25/2017 22:40      76    46.6     20.60        54.0      69.7      48.1       0       1      75      74    1016    0.00
    03/25/2017 22:50      76    46.2     20.60        53.8      69.7      48.1       0       3     168     158    1016    0.00
    03/25/2017 23:00      74    46.2     20.60        53.8      69.7      48.1       0       3     111     146    1016    0.00
    03/25/2017 23:10      73    45.7     20.60        54.1      69.7      48.1       1       3     162     108    1016    0.00
    03/25/2017 23:20      73    45.5     20.60        54.0      69.7      48.1       0       0     123     128    1016    0.00
    03/25/2017 23:30      72    45.3     20.60        53.9      69.7      48.1       2       4      79      70    1016    0.00
    03/25/2017 23:40      70    45.2     20.60        54.4      69.7      48.1       0       4      62      49    1016    0.00
    03/25/2017 23:50      73    45.1     20.60        54.1      69.7      48.1       0       3      99      92    1016    0.00
    03/26/2017 00:00      77    46.4     20.60        54.0      69.7      48.1       3       5      87      88    1016    0.00
    03/26/2017 00:10      77    47.1     20.60        54.0      54.3      53.9       2       5      67      79    1015    0.00
    03/26/2017 00:20      76    46.8     20.60        53.8      54.3      53.6       1       3      45      38    1015    0.00
    03/26/2017 00:30      77    46.0     20.60        53.2      54.3      52.6       0       1     161     238    1016    0.00
    03/26/2017 00:40      79    45.9     20.60        52.4      54.3      52.1       0       3     250     257    1016    0.00
    03/26/2017 00:50      78    45.9     20.60        52.2      54.3      52.0       0       2     149     140    1016    0.00
    03/26/2017 01:00      79    45.6     20.60        52.1      54.3      51.7       0       2     251     247    1015    0.00
    03/26/2017 01:10      80    45.3     20.60        51.6      54.3      51.3       0       1     231     283    1015    0.00
    03/26/2017 01:20      80    45.3     20.60        51.1      54.3      50.7       0       1     233     198    1015    0.00
    03/26/2017 01:30      83    45.2     20.60        50.7      54.3      50.4       0       3     168     151    1015    0.00
    03/26/2017 01:40      83    46.0     20.60        51.0      54.3      50.4       0       2     156     152    1015    0.00
    03/26/2017 01:50      84    46.0     20.60        50.9      54.3      50.4       0       0     176     173    1015    0.00
    03/26/2017 02:00      84    45.8     20.60        50.5      54.3      50.0       0       1     266     264    1015    0.00
    03/26/2017 02:10      85    46.0     20.60        50.4      54.3      50.0       0       2     301     329    1015    0.00
    03/26/2017 02:20      84    45.8     20.60        50.3      54.3      50.0       0       2     317     325    1015    0.00
    03/26/2017 02:30      84    45.4     20.60        49.9      54.3      49.7       0       0     359      29    1015    0.00
    03/26/2017 02:40      85    45.3     20.60        49.7      54.3      49.4       0       0       0      26    1015    0.00
    03/26/2017 02:50      86    45.3     20.60        49.6      54.3      49.4       0       1     348     348    1015    0.00
    03/26/2017 03:00      85    45.6     20.60        49.8      54.3      49.4       0       1     346     340    1015    0.00
    03/26/2017 03:10      85    45.4     20.60        49.7      54.3      49.4       0       1       6      95    1015    0.00
    03/26/2017 03:20      85    45.0     20.60        49.4      54.3      48.9       0       1      93      94    1015    0.00
    03/26/2017 03:30      86    45.0     20.60        49.1      54.3      48.7       0       2      63      73    1015    0.00
    03/26/2017 03:40      86    45.1     20.60        49.2      54.3      48.7       0       0     316     322    1015    0.00
    03/26/2017 03:50      86    44.7     20.60        48.8      54.3      48.6       0       2     298     291    1015    0.00
    03/26/2017 04:00      86    45.0     20.60        49.0      54.3      48.6       0       1     336     341    1015    0.00
    03/26/2017 04:10      86    45.3     20.60        49.2      54.3      48.6       0       1     338       4    1015    0.00
    03/26/2017 04:20      87    45.3     20.60        49.2      54.3      48.6       0       2     327     329    1015    0.00
    03/26/2017 04:30      87    45.6     20.60        49.4      54.3      48.6       0       2      19      13    1015    0.00
    03/26/2017 04:40      87    45.6     20.60        49.4      54.3      48.6       0       1      67      34    1015    0.00
    03/26/2017 04:50      87    45.5     20.60        49.2      54.3      48.6       0       1       7     354    1015    0.00
    03/26/2017 05:00      87    45.6     20.60        49.3      54.3      48.6       0       2      22       6    1015    0.00
    03/26/2017 05:10      87    45.7     20.60        49.3      54.3      48.6       0       2      83      83    1015    0.00
    03/26/2017 05:20      88    45.8     20.60        49.3      54.3      48.6       0       3      80      91    1015    0.00
    03/26/2017 05:30      88    46.1     20.60        49.5      54.3      48.6       1       2      93     102    1015    0.00
    03/26/2017 05:40      89    46.4     20.60        49.6      54.3      48.6       0       2     149     145    1015    0.00
    03/26/2017 05:50      89    46.8     20.60        49.9      54.3      48.6       0       2     139     149    1016    0.00
    03/26/2017 06:00      89    47.2     20.60        50.2      54.3      48.6       0       2     216     204    1016    0.00
    03/26/2017 06:10      90    47.4     20.60        50.4      54.3      48.6       0       0     322     331    1016    0.00
    03/26/2017 06:20      90    47.5     20.60        50.4      54.3      48.6       0       1     310      33    1016    0.00
    03/26/2017 06:30      90    47.5     20.60        50.4      54.3      48.6       1       3      29      34    1016    0.00
    03/26/2017 06:40      90    47.6     20.60        50.5      54.3      48.6       0       3      62      35    1016    0.00
    03/26/2017 06:50      90    47.8     20.60        50.6      54.3      48.6       2       3      65      65    1016    0.00
    03/26/2017 07:00      90    47.9     20.60        50.8      54.3      48.6       0       4      91      74    1016    0.00
    03/26/2017 07:10      90    48.2     20.60        51.0      54.3      48.6       1       2     189     184    1016    0.00
    03/26/2017 07:20      89    48.7     20.60        51.7      54.3      48.6       1       2     201     185    1016    0.00
    03/26/2017 07:30      88    49.2     20.60        52.5      54.3      48.6       0       2     251     260    1016    0.00
    03/26/2017 07:40      83    49.6     20.60        53.8      54.4      48.6       0       2      59      51    1016    0.00
    03/26/2017 07:50      77    49.2     20.60        55.0      55.6      48.6       0       3     189     194    1016    0.00
    03/26/2017 08:00      78    48.0     20.60        54.9      55.6      48.6       2       4     243     226    1017    0.00
    03/26/2017 08:10      78    48.1     20.60        54.7      55.6      48.6       2       4     232     190    1017    0.00
    03/26/2017 08:20      77    48.1     20.60        54.8      55.6      48.6       2       4     238     242    1017    0.00
    03/26/2017 08:30      78    47.7     20.60        54.6      55.6      48.6       2       4     236     223    1017    0.00
    03/26/2017 08:40      72    48.3     20.60        56.0      57.1      48.6       2       5     205     157    1017    0.00
    03/26/2017 08:50      69    47.8     20.60        57.4      57.9      48.6       1       3     193      72    1017    0.00
    03/26/2017 09:00      68    47.3     20.60        57.5      57.9      48.6       2       7     175     159    1017    0.00
    03/26/2017 09:10      68    47.4     20.60        58.3      58.9      48.6       2       5     245     193    1017    0.00
    03/26/2017 09:20      66    47.1     20.60        58.3      59.2      48.6       2       5     185     199    1017    0.00
    03/26/2017 09:30      64    47.5     20.60        59.9      60.4      48.6       2       5     204     209    1017    0.00
    03/26/2017 09:40      60    47.6     20.60        60.9      61.2      48.6       3       5     131     145    1017    0.00
    03/26/2017 09:50      55    47.0     20.60        61.3      62.2      48.6       1       5     121      99    1017    0.00
    03/26/2017 10:00      53    45.3     20.60        61.8      62.3      48.6       2       6      99      89    1017    0.00
    03/26/2017 10:10      54    44.8     20.60        62.1      62.5      48.6       3       6     129      74    1017    0.00
    03/26/2017 10:20      52    44.4     20.60        61.9      63.0      48.6       2       6     249     149    1017    0.00
    03/26/2017 10:30      50    43.6     20.60        62.9      63.5      48.6       2       5     165     173    1017    0.00
    03/26/2017 10:40      45    43.5     20.60        63.5      64.6      48.6       2       5     135     167    1017    0.00
    03/26/2017 10:50      47    43.1     20.60        64.6      65.0      48.6       2       6     343     263    1017    0.00
    03/26/2017 11:00      47    43.7     20.60        65.5      66.0      48.6       3       8     118     171    1017    0.00
    03/26/2017 11:10      46    43.9     20.60        65.1      66.0      48.6       3       7     187     162    1017    0.00
    03/26/2017 11:20      43    43.6     20.60        66.2      66.8      48.6       2       6     113     101    1017    0.00
    03/26/2017 11:30      43    44.4     20.60        66.7      67.3      48.6       2       6     190      89    1017    0.00
    03/26/2017 11:40      45    44.2     20.60        66.6      67.3      48.6       3       7     234     256    1016    0.00
    03/26/2017 11:50      42    44.9     20.60        68.0      68.8      48.6       4       9     159     170    1016    0.00
    03/26/2017 12:00      46    44.0     20.60        66.7      68.8      48.6       3       8     277     257    1016    0.00
    03/26/2017 12:10      47    45.0     20.60        67.2      68.8      48.6       3      10     173     198    1016    0.00
    03/26/2017 12:20      47    45.5     20.60        66.4      68.8      48.6       5       9     170     206    1016    0.00
    03/26/2017 12:30      45    46.2     20.60        66.7      68.8      48.6       6       9     160     171    1016    0.00
    03/26/2017 12:40      46    44.9     20.60        66.5      68.8      48.6       2       7     133     107    1016    0.00
    03/26/2017 12:50      44    46.1     20.60        67.6      68.8      48.6       5      10     141     172    1016    0.00
    03/26/2017 13:00      46    45.8     20.60        67.5      68.8      48.6       4       8     152     154    1016    0.00
    03/26/2017 13:10      47    46.2     20.60        67.0      68.8      48.6       4       9     143     134    1016    0.00
    03/26/2017 13:20      48    47.0     20.60        66.6      68.8      48.6       4       8     161     151    1016    0.00
    03/26/2017 13:30      54    48.0     20.60        66.9      68.8      48.6       5      12     187     173    1016    0.00
    03/26/2017 13:40      56    48.9     20.60        65.0      68.8      48.6       4       9     223     195    1016    0.00
    03/26/2017 13:50      56    49.4     20.60        65.5      68.8      48.6       4      10     214     182    1016    0.00
    03/26/2017 14:00      52    49.5     20.60        66.8      68.8      48.6       4       9     213     240    1016    0.00
    03/26/2017 14:10      51    48.8     20.60        67.9      68.8      48.6       4      12     217     175    1016    0.00
    03/26/2017 14:20      49    48.6     20.60        67.4      68.8      48.6       5      13     225     193    1016    0.00
    03/26/2017 14:30      48    48.5     20.60        67.3      68.8      48.6       4      10     219     253    1016    0.00
    03/26/2017 14:40      52    47.5     20.60        67.4      68.8      48.6       4       9     238     250    1015    0.00
    03/26/2017 14:50      54    47.9     20.60        66.3      68.8      48.6       4      11     214     183    1015    0.00
    03/26/2017 15:00      48    47.5     20.60        67.2      68.8      48.6       3       6     216     187    1015    0.00
    03/26/2017 15:10      48    47.2     20.60        66.7      68.8      48.6       4      10     251     241    1015    0.00
    03/26/2017 15:20      50    47.2     20.60        67.1      68.8      48.6       3      10     247     258    1015    0.00
    03/26/2017 15:30      50    46.9     20.60        66.2      68.8      48.6       4       8     265     253    1015    0.00
    03/26/2017 15:40      46    47.1     20.60        66.9      68.8      48.6       3       7     224     263    1015    0.00
    03/26/2017 15:50      47    46.3     20.60        67.0      68.8      48.6       3       8     267     255    1015    0.00
    03/26/2017 16:00      46    46.5     20.60        67.8      68.8      48.6       2       9     252     260    1015    0.00
    03/26/2017 16:10      46    46.0     20.60        67.4      68.8      48.6       2       4     212     241    1015    0.00
    03/26/2017 16:20      45    46.1     20.60        67.4      68.8      48.6       1       4     225     280    1015    0.00
    03/26/2017 16:30      47    46.1     20.60        67.2      68.8      48.6       2       6     276     243    1015    0.00
    03/26/2017 16:40      48    46.4     20.60        66.7      68.8      48.6       2       8     249     252    1015    0.00
    03/26/2017 16:50      49    45.9     20.60        66.3      68.8      48.6       2       6     257     253    1015    0.00
    03/26/2017 17:00      50    46.0     20.60        65.7      68.8      48.6       2       7     251     247    1015    0.00
    03/26/2017 17:10      51    45.8     20.60        65.3      68.8      48.6       4       8     266     237    1015    0.00
    03/26/2017 17:20      50    46.2     20.60        65.0      68.8      48.6       3       8     275     253    1015    0.00
    03/26/2017 17:30      52    46.1     20.60        64.7      68.8      48.6       4       8     263     229    1015    0.00
    03/26/2017 17:40      53    45.9     20.60        63.7      68.8      48.6       5       9     261     253    1015    0.00
    03/26/2017 17:50      54    45.9     20.60        63.0      68.8      48.6       4       8     260     255    1015    0.00
    03/26/2017 18:00      55    46.3     20.60        62.6      68.8      48.6       3       8     249     243    1015    0.00
    03/26/2017 18:10      55    46.0     20.60        62.2      68.8      48.6       3       7     261     257    1015    0.00
    03/26/2017 18:20      57    45.8     20.60        61.6      68.8      48.6       4       7     262     245    1015    0.00
    03/26/2017 18:30      57    45.8     20.60        61.2      68.8      48.6       3       7     265     258    1015    0.00
    03/26/2017 18:40      58    45.8     20.60        61.0      68.8      48.6       3       6     269     256    1015    0.00
    03/26/2017 18:50      58    45.6     20.60        60.5      68.8      48.6       3       8     267     249    1015    0.00
    03/26/2017 19:00      60    45.6     20.60        60.2      68.8      48.6       0       4     269     259    1015    0.00
    03/26/2017 19:10      61    46.0     20.60        59.7      68.8      48.6       2       4     280     295    1015    0.00
    03/26/2017 19:20      62    46.1     20.60        59.4      68.8      48.6       2       5     262     266    1015    0.00
    03/26/2017 19:30      63    46.3     20.60        59.1      68.8      48.6       0       3     251     268    1015    0.00
    03/26/2017 19:40      64    46.4     20.60        58.7      68.8      48.6       0       0       0     283    1015    0.00
    03/26/2017 19:50      66    46.6     20.60        58.3      68.8      48.6       0       2     259     308    1015    0.00
    03/26/2017 20:00      66    46.9     20.60        58.0      68.8      48.6       1       4     272     255    1016    0.00
    03/26/2017 20:10      66    47.0     20.60        58.2      68.8      48.6       0       2     292     281    1016    0.00
    03/26/2017 20:20      67    47.0     20.60        58.0      68.8      48.6       0       2     287     293    1016    0.00
    03/26/2017 20:30      68    46.9     20.60        57.6      68.8      48.6       0       0     293     293    1016    0.00
    03/26/2017 20:40      69    47.0     20.60        57.2      68.8      48.6       0       0       1     355    1016    0.00
    03/26/2017 20:50      69    47.1     20.60        57.3      68.8      48.6       0       1      54      67    1016    0.00
    03/26/2017 21:00      69    47.0     20.60        57.2      68.8      48.6       0       2      86      87    1016    0.00
    03/26/2017 21:10      68    47.2     20.60        57.4      68.8      48.6       1       3      85      72    1016    0.00
    03/26/2017 21:20      67    47.0     20.60        57.6      68.8      48.6       1       2      62      51    1016    0.00
    03/26/2017 21:30      67    46.8     20.60        57.6      68.8      48.6       1       2      43      52    1016    0.00
    03/26/2017 21:40      68    46.5     20.60        57.3      68.8      48.6       0       2      16       7    1016    0.00
    03/26/2017 21:50      68    46.4     20.60        56.9      68.8      48.6       0       1       3      94    1016    0.00
    03/26/2017 22:00      69    46.3     20.60        56.4      68.8      48.6       0       2      63      61    1016    0.00
    03/26/2017 22:10      69    46.5     20.60        56.5      68.8      48.6       1       2      36      25    1016    0.00
    03/26/2017 22:20      69    46.4     20.60        56.4      68.8      48.6       0       1      20       1    1016    0.00
    03/26/2017 22:30      71    46.3     20.60        56.0      68.8      48.6       0       1      35      36    1016    0.00
    03/26/2017 22:40      72    46.3     20.60        55.3      68.8      48.6       0       0       0      84    1016    0.00
    03/26/2017 22:50      73    46.5     20.60        55.0      68.8      48.6       0       0      40      42    1015    0.00
    03/26/2017 23:00      73    46.4     20.60        54.8      68.8      48.6       0       0      36      28    1015    0.00
    03/26/2017 23:10      75    46.4     20.60        54.4      68.8      48.6       0       1      11      28    1015    0.00
    03/26/2017 23:20      75    46.5     20.60        54.3      68.8      48.6       0       0       0     352    1015    0.00
    03/26/2017 23:30      77    46.2     20.60        53.6      68.8      48.6       0       0     286     285    1016    0.00
    03/26/2017 23:40      77    46.5     20.60        53.4      68.8      48.6       0       0       0     277    1016    0.00
    03/26/2017 23:50      77    46.4     20.60        53.3      68.8      48.6       0       0       0     323    1015    0.00
    03/27/2017 00:00      79    46.2     20.60        52.9      68.8      48.6       0       0       0     323    1016    0.00
    03/27/2017 00:10      79    46.3     20.60        52.7      53.0      52.5       0       0       0      32    1016    0.00
    03/27/2017 00:20      80    46.4     20.60        52.6      53.0      52.4       0       1      74      80    1016    0.00
    03/27/2017 00:30      78    47.0     20.60        53.3      53.6      52.4       0       2      72      62    1016    0.00
    03/27/2017 00:40      77    46.9     20.60        53.7      54.0      52.4       0       2      76      64    1016    0.00
    03/27/2017 00:50      78    46.0     20.60        53.1      54.0      52.4       0       1     346     345    1016    0.00
    03/27/2017 01:00      80    46.3     20.60        52.5      54.0      52.4       0       2     353     347    1016    0.00
    03/27/2017 01:10      80    46.6     20.60        52.7      54.0      52.4       0       2       2      11    1015    0.00
    03/27/2017 01:20      79    46.5     20.60        52.7      54.0      52.4       0       1      24      38    1015    0.00
    03/27/2017 01:30      79    46.2     20.60        52.4      54.0      52.1       0       2     353      20    1015    0.00
    03/27/2017 01:40      81    45.8     20.60        51.8      54.0      51.4       0       1     341       9    1015    0.00
    03/27/2017 01:50      81    46.1     20.60        51.7      54.0      51.4       0       0     293     293    1015    0.00
    03/27/2017 02:00      82    45.9     20.60        51.5      54.0      51.2       0       1     306     326    1015    0.00
    03/27/2017 02:10      82    46.0     20.60        51.2      54.0      51.1       0       1     329     346    1015    0.00
    03/27/2017 02:20      82    46.0     20.60        51.2      54.0      51.1       0       2     357      17    1015    0.00
    03/27/2017 02:30      82    45.9     20.60        51.1      54.0      50.8       0       1     355     345    1015    0.00
    03/27/2017 02:40      83    45.9     20.60        51.1      54.0      50.8       1       2      10      73    1015    0.00
    03/27/2017 02:50      81    46.3     20.60        51.6      54.0      50.8       1       3      69      74    1015    0.00
    03/27/2017 03:00      81    45.6     20.60        51.3      54.0      50.6       1       2     119     101    1015    0.00
    03/27/2017 03:10      82    45.0     20.60        50.4      54.0      49.7       0       2     292     291    1015    0.00
    03/27/2017 03:20      84    44.8     20.60        49.7      54.0      49.4       0       0     285     285    1015    0.00
    03/27/2017 03:30      84    44.8     20.60        49.5      54.0      49.1       0       1     252     249    1015    0.00
    03/27/2017 03:40      85    44.8     20.60        49.2      54.0      48.9       0       0       0     253    1015    0.00
    03/27/2017 03:50      86    45.1     20.60        49.2      54.0      48.9       0       2     297     291    1015    0.00
    03/27/2017 04:00      86    45.4     20.60        49.4      54.0      48.9       1       2     320     322    1015    0.00
    03/27/2017 04:10      85    45.6     20.60        49.7      54.0      48.9       1       3     340     332    1015    0.00
    03/27/2017 04:20      85    45.0     20.60        49.4      54.0      48.9       0       0       0     336    1015    0.00
    03/27/2017 04:30      86    44.9     20.60        49.1      54.0      48.7       0       0       1     352    1015    0.00
    03/27/2017 04:40      86    45.0     20.60        49.1      54.0      48.7       0       2      67      42    1015    0.00
    03/27/2017 04:50      86    45.6     20.60        49.5      54.0      48.7       2       4      49      53    1015    0.00
    03/27/2017 05:00      86    45.6     20.60        49.7      54.0      48.7       2       4      43      33    1015    0.00
    03/27/2017 05:10      85    45.6     20.60        49.7      54.0      48.7       0       3      11      30    1015    0.00
    03/27/2017 05:20      86    45.0     20.60        49.2      54.0      48.7       0       0       0     316    1015    0.00
    03/27/2017 05:30      87    44.9     20.60        48.9      54.0      48.7       0       2     333     338    1015    0.00
    03/27/2017 05:40      86    45.3     20.60        49.1      54.0      48.6       0       2     300     241    1015    0.00
    03/27/2017 05:50      87    45.0     20.60        48.8      54.0      48.3       0       2     286     241    1015    0.00
    03/27/2017 06:00      87    45.8     20.60        49.4      54.0      48.3       0       1     247     248    1015    0.00
    03/27/2017 06:10      87    45.9     20.60        49.6      54.0      48.3       0       2     268     306    1015    0.00
    03/27/2017 06:20      87    46.1     20.60        49.8      54.0      48.3       0       1     277     255    1015    0.00
    03/27/2017 06:30      87    46.3     20.60        50.0      54.0      48.3       0       2     250     256    1015    0.00
    03/27/2017 06:40      87    47.3     20.60        50.9      54.0      48.3       0       2     358      19    1015    0.00
    03/27/2017 06:50      86    48.4     20.60        52.2      54.0      48.3       0       1     348      11    1015    0.00
    03/27/2017 07:00      85    48.8     20.60        52.9      54.0      48.3       0       2     218     242    1016    0.00
    03/27/2017 07:10      83    48.9     20.60        53.5      54.0      48.3       1       4     335      18    1016    0.00
    03/27/2017 07:20      82    48.8     20.60        54.0      54.3      48.3       0       2      22     329    1016    0.00
    03/27/2017 07:30      80    48.6     20.60        54.3      54.5      48.3       1       3      66      96    1016    0.00
    03/27/2017 07:40      81    48.7     20.60        54.5      55.0      48.3       1       3      85      93    1016    0.00
    03/27/2017 07:50      75    49.3     20.60        55.8      56.4      48.3       1       5     108      90    1016    0.00
    03/27/2017 08:00      77    48.1     20.60        55.7      56.4      48.3       2       5      90      86    1016    0.00
    03/27/2017 08:10      74    48.5     20.60        56.1      56.5      48.3       3       6     103      89    1016    0.00
    03/27/2017 08:20      72    49.0     20.60        57.1      58.3      48.3       3       6     157     167    1016    0.00
    03/27/2017 08:30      71    48.4     20.60        57.9      58.6      48.3       3       6     168     133    1016    0.00
    03/27/2017 08:40      68    48.3     20.60        58.3      58.6      48.3       1       4     150      88    1016    0.00
    03/27/2017 08:50      64    48.9     20.60        59.5      60.9      48.3       2       4     177     165    1016    0.00
    03/27/2017 09:00      66    48.3     20.60        60.3      61.2      48.3       3       6     171     175    1016    0.00
    03/27/2017 09:10      64    48.1     20.60        60.4      61.2      48.3       3       6     177     131    1016    0.00
    03/27/2017 09:20      64    48.7     20.60        61.3      62.1      48.3       4       7     193     198    1016    0.00
    03/27/2017 09:30      46    47.0     20.60        61.3      62.2      48.3       4      12     210     317    1016    0.00
    03/27/2017 09:40      42    40.1     20.60        63.8      64.5      48.3       7      18     323     348    1016    0.00
    03/27/2017 09:50      41    40.1     20.60        64.4      64.7      48.3       8      21     329     336    1016    0.00
    03/27/2017 10:00      37    39.3     20.60        64.5      65.1      48.3       9      22     337     343    1016    0.00
    03/27/2017 10:10      38    37.8     20.60        64.0      65.1      48.3      10      26     341     333    1016    0.00
    03/27/2017 10:20      39    38.2     20.60        64.3      65.1      48.3       9      20     344     346    1016    0.00
    03/27/2017 10:30      37    38.1     20.60        64.5      65.1      48.3       9      22     346     344    1016    0.00
    03/27/2017 10:40      38    37.5     20.60        64.2      65.1      48.3      10      22     345       0    1016    0.00
    03/27/2017 10:50      36    37.7     20.60        64.5      65.1      48.3       8      20     347      11    1016    0.00
    03/27/2017 11:00      34    37.2     20.60        65.2      65.5      48.3       8      19     343     289    1016    0.00
    03/27/2017 11:10      34    36.1     20.60        65.0      66.0      48.3      10      24     336     317    1016    0.00
    03/27/2017 11:20      33    36.4     20.60        65.8      66.4      48.3       8      21     347     317    1016    0.00
    03/27/2017 11:30      33    35.8     20.60        66.0      66.6      48.3       8      22     343     291    1016    0.00
    03/27/2017 11:40      32    36.3     20.60        66.1      66.6      48.3       8      19     346     310    1015    0.00
    03/27/2017 11:50      31    34.5     20.60        65.8      66.6      48.3       9      21     345     333    1015    0.00
    03/27/2017 12:00      29    33.5     20.60        66.2      66.6      48.3       9      24     335     345    1015    0.00
    03/27/2017 12:10      30    33.7     20.60        66.2      66.6      48.3       9      23     342     324    1015    0.00
    03/27/2017 12:20      28    34.1     20.60        67.1      67.9      48.3       7      21     344     343    1015    0.00
    03/27/2017 12:30      27    33.5     20.60        67.8      68.4      48.3       7      14     325     323    1015    0.00
    03/27/2017 12:40      28    33.4     20.60        67.7      68.4      48.3       7      15     333     352    1015    0.00
    03/27/2017 12:50      29    33.7     20.60        67.9      68.4      48.3       7      18     320     271    1014    0.00
    03/27/2017 13:00      26    32.9     20.60        67.9      68.4      48.3       9      22     332     339    1014    0.00
    03/27/2017 13:10      26    32.3     20.60        67.8      68.4      48.3       9      21     333     345    1014    0.00
    03/27/2017 13:20      26    31.9     20.60        67.9      68.4      48.3      10      23     333     298    1014    0.00
    03/27/2017 13:30      26    32.2     20.60        68.4      68.7      48.3       8      19     335       7    1014    0.00
    03/27/2017 13:40      25    31.8     20.60        68.6      69.0      48.3       8      21     337     335    1014    0.00
    03/27/2017 13:50      23    30.0     20.60        68.6      69.0      48.3       9      23     336     314    1014    0.00
    03/27/2017 14:00      23    28.9     20.60        68.6      69.0      48.3       9      24     339     346    1014    0.00
    03/27/2017 14:10      23    29.2     20.60        69.1      69.5      48.3       7      22     335     342    1014    0.00
    03/27/2017 14:20      22    28.6     20.60        68.7      69.5      48.3       9      19     329       2    1014    0.00